Time;durP1;ratioP1;P1;durP2;ratioP2;P2;SDS_P1;SDS_P2;PMS_P1;PMS_P2;Temp;Humidity;BMP_temperature;BMP_pressure;BME280_temperature;BME280_humidity;BME280_pressure;Samples;Min_cycle;Max_cycle;Signal;HPM_P1;HPM_P2
2022/03/05 00:00:30;;;;;;;27.40;18.47;;;;;;;5.68;83.95;99302.63;5073906;28;20219;-79
2022/03/05 00:02:57;;;;;;;29.13;18.47;;;;;;;5.56;84.32;99298.47;5073593;28;20195;-80
2022/03/05 00:05:24;;;;;;;24.47;17.60;;;;;;;5.51;84.58;99302.84;5073576;28;20286;-81
2022/03/05 00:07:51;;;;;;;27.60;17.47;;;;;;;5.55;84.93;99296.75;5073742;28;20231;-81
2022/03/05 00:10:19;;;;;;;24.93;17.07;;;;;;;5.37;84.84;99276.41;5073739;28;20204;-81
2022/03/05 00:12:46;;;;;;;22.50;16.77;;;;;;;5.45;85.03;99305.47;5073455;28;20583;-80
2022/03/05 00:15:14;;;;;;;27.90;16.87;;;;;;;5.55;84.50;99301.06;5073618;28;20688;-81
2022/03/05 00:17:41;;;;;;;24.57;17.00;;;;;;;5.42;85.28;99290.06;5073090;28;20228;-81
2022/03/05 00:20:09;;;;;;;24.43;17.20;;;;;;;5.50;84.85;99298.56;5073229;28;20198;-81
2022/03/05 00:22:36;;;;;;;26.03;16.07;;;;;;;5.46;85.37;99302.03;5073045;28;20207;-80
2022/03/05 00:25:03;;;;;;;24.37;17.17;;;;;;;5.35;86.11;99296.16;5073287;28;20210;-80
2022/03/05 00:27:30;;;;;;;26.87;18.40;;;;;;;5.44;86.15;99296.91;5073260;28;20575;-81
2022/03/05 00:29:57;;;;;;;31.33;20.87;;;;;;;5.44;85.85;99275.44;5073364;28;20204;-81
2022/03/05 00:32:25;;;;;;;29.33;18.90;;;;;;;5.66;85.50;99304.34;5073277;28;20208;-80
2022/03/05 00:34:52;;;;;;;28.33;19.43;;;;;;;5.61;85.76;99299.28;5072977;28;20191;-77
2022/03/05 00:37:19;;;;;;;29.73;19.67;;;;;;;5.66;85.53;99289.75;5073221;28;20222;-76
2022/03/05 00:39:46;;;;;;;27.67;19.60;;;;;;;5.41;87.33;99289.22;5072932;28;20215;-75
2022/03/05 00:42:13;;;;;;;28.30;20.60;;;;;;;5.52;87.24;99286.53;5072777;28;20228;-76
2022/03/05 00:44:40;;;;;;;28.03;19.37;;;;;;;5.38;88.24;99288.41;5072982;28;20668;-76
2022/03/05 00:47:07;;;;;;;34.30;22.67;;;;;;;5.48;88.19;99290.00;5073063;28;20648;-76
2022/03/05 00:49:36;;;;;;;31.57;20.83;;;;;;;5.23;88.19;99242.25;5072998;28;20601;-76
2022/03/05 00:52:03;;;;;;;39.57;21.83;;;;;;;5.40;88.98;99294.38;5073036;28;20200;-75
2022/03/05 00:54:30;;;;;;;32.93;21.73;;;;;;;5.50;88.78;99279.69;5072773;28;20582;-76
2022/03/05 00:56:57;;;;;;;33.70;20.07;;;;;;;5.48;87.56;99267.69;5072926;28;20577;-75
2022/03/05 00:59:24;;;;;;;33.80;19.47;;;;;;;5.62;87.58;99295.00;5072854;28;20266;-75
2022/03/05 01:01:51;;;;;;;41.03;25.07;;;;;;;5.49;87.43;99286.56;5072397;28;20197;-76
2022/03/05 01:04:17;;;;;;;32.53;21.63;;;;;;;5.62;87.42;99302.72;5072595;28;20208;-76
2022/03/05 01:06:46;;;;;;;33.17;21.90;;;;;;;5.67;87.15;99298.34;5072508;28;20200;-77
2022/03/05 01:09:13;;;;;;;43.13;21.63;;;;;;;5.65;87.24;99298.34;5072238;28;20220;-75
2022/03/05 01:11:40;;;;;;;32.13;20.63;;;;;;;5.31;88.50;99249.00;5072077;28;20285;-76
2022/03/05 01:14:07;;;;;;;28.00;19.63;;;;;;;5.52;89.17;99299.41;5072413;28;20206;-76
2022/03/05 01:16:35;;;;;;;45.07;22.10;;;;;;;5.49;89.71;99281.41;5072228;28;20269;-75
2022/03/05 01:19:02;;;;;;;39.73;22.17;;;;;;;5.06;91.46;99243.31;5072038;28;20207;-76
2022/03/05 01:21:29;;;;;;;33.40;21.73;;;;;;;5.27;92.21;99296.25;5072428;28;20212;-77
2022/03/05 01:23:57;;;;;;;43.00;22.43;;;;;;;5.29;92.64;99298.81;5072262;28;20208;-75
2022/03/05 01:26:24;;;;;;;39.43;23.17;;;;;;;5.29;93.63;99293.66;5071948;28;20196;-76
2022/03/05 01:28:51;;;;;;;35.40;22.07;;;;;;;5.20;93.51;99289.44;5071904;28;20480;-75
2022/03/05 01:31:18;;;;;;;38.10;21.77;;;;;;;5.03;93.91;99275.91;5072016;28;20204;-76
2022/03/05 01:33:44;;;;;;;37.30;22.23;;;;;;;5.15;94.04;99296.38;5072308;28;20203;-75
2022/03/05 01:36:11;;;;;;;35.33;22.23;;;;;;;5.23;94.08;99298.84;5072370;28;20213;-76
2022/03/05 01:38:38;;;;;;;38.57;22.83;;;;;;;5.05;93.42;99251.91;5071798;28;20692;-75
2022/03/05 01:41:07;;;;;;;36.03;22.97;;;;;;;5.03;94.13;99260.50;5071650;28;20219;-76
2022/03/05 01:43:34;;;;;;;36.77;23.50;;;;;;;4.84;93.46;99253.84;5071675;28;20274;-76
2022/03/05 01:46:01;;;;;;;34.00;21.83;;;;;;;5.11;93.80;99298.13;5071799;28;20569;-75
2022/03/05 01:48:28;;;;;;;33.40;20.90;;;;;;;5.22;93.56;99305.72;5071389;28;20224;-76
2022/03/05 01:50:54;;;;;;;34.87;21.43;;;;;;;5.30;92.46;99296.22;5071533;28;20206;-76
2022/03/05 01:53:21;;;;;;;34.27;21.60;;;;;;;5.32;92.70;99299.59;5071717;28;20693;-76
2022/03/05 01:55:48;;;;;;;33.80;21.63;;;;;;;5.40;92.30;99297.81;5071234;28;20199;-76
2022/03/05 01:58:17;;;;;;;35.07;22.93;;;;;;;5.45;91.82;99301.19;5071607;28;20241;-76
2022/03/05 02:00:44;;;;;;;34.50;21.57;;;;;;;5.51;91.75;99302.84;5071669;28;20676;-75
2022/03/05 02:03:11;;;;;;;36.17;22.33;;;;;;;5.46;91.17;99297.72;5071431;28;20195;-76
2022/03/05 02:05:38;;;;;;;36.30;22.83;;;;;;;5.41;91.90;99303.81;5071102;28;20198;-76
2022/03/05 02:08:05;;;;;;;36.67;23.63;;;;;;;5.24;92.78;99285.13;5071169;28;20223;-76
2022/03/05 02:10:32;;;;;;;35.23;22.67;;;;;;;5.34;92.14;99297.88;5071274;28;20196;-81
2022/03/05 02:12:59;;;;;;;39.20;24.23;;;;;;;5.30;92.30;99300.50;5071855;28;20200;-81
2022/03/05 02:15:27;;;;;;;33.47;23.10;;;;;;;5.25;93.39;99294.56;5071447;28;20278;-81
2022/03/05 02:17:54;;;;;;;33.07;22.83;;;;;;;5.29;92.72;99299.66;5071136;28;20204;-76
2022/03/05 02:20:21;;;;;;;37.47;23.00;;;;;;;5.32;92.60;99298.75;5070931;28;20202;-76
2022/03/05 02:22:49;;;;;;;36.47;23.37;;;;;;;5.17;93.22;99293.78;5070847;28;20200;-77
2022/03/05 02:25:17;;;;;;;34.63;22.53;;;;;;;5.22;92.77;99297.16;5071011;28;20636;-75
2022/03/05 02:27:45;;;;;;;37.33;23.43;;;;;;;5.13;93.45;99286.97;5071004;28;20291;-75
2022/03/05 02:30:12;;;;;;;40.60;24.40;;;;;;;5.25;93.70;99302.28;5070784;28;20216;-76
2022/03/05 02:32:39;;;;;;;39.23;25.37;;;;;;;5.27;93.03;99295.41;5070786;28;20195;-75
2022/03/05 02:35:07;;;;;;;33.37;21.97;;;;;;;5.30;93.17;99308.22;5070818;28;20196;-76
2022/03/05 02:37:33;;;;;;;39.07;24.23;;;;;;;5.08;94.25;99302.44;5070744;28;20203;-76
2022/03/05 02:40:02;;;;;;;47.40;30.50;;;;;;;5.09;94.25;99287.00;5070772;28;20196;-76
2022/03/05 02:42:29;;;;;;;42.90;27.47;;;;;;;5.15;94.09;99308.38;5070224;28;20630;-76
2022/03/05 02:44:56;;;;;;;45.77;25.97;;;;;;;4.92;94.24;99273.47;5070604;28;20196;-76
2022/03/05 02:47:22;;;;;;;37.93;23.73;;;;;;;5.00;95.12;99306.81;5070414;28;20198;-75
2022/03/05 02:49:49;;;;;;;41.30;24.87;;;;;;;4.69;95.94;99270.25;5070303;28;20590;-76
2022/03/05 02:52:16;;;;;;;39.93;24.83;;;;;;;4.91;95.77;99307.75;5070313;28;20204;-75
2022/03/05 02:54:43;;;;;;;35.43;24.60;;;;;;;4.98;95.19;99304.25;5070306;28;20238;-75
2022/03/05 02:57:11;;;;;;;36.67;25.13;;;;;;;5.00;95.02;99299.94;5070669;28;20199;-77
2022/03/05 02:59:38;;;;;;;51.73;28.63;;;;;;;5.06;95.03;99310.19;5069596;28;20200;-76
2022/03/05 03:02:05;;;;;;;45.30;28.47;;;;;;;5.06;95.18;99302.47;5071038;28;20192;-77
2022/03/05 03:04:32;;;;;;;52.83;30.97;;;;;;;5.11;95.26;99297.25;5070742;28;20206;-80
2022/03/05 03:06:59;;;;;;;88.17;44.23;;;;;;;5.05;95.54;99298.19;5070902;28;20184;-81
2022/03/05 03:09:26;;;;;;;89.03;46.23;;;;;;;5.00;96.09;99299.94;5071374;28;20610;-80
2022/03/05 03:11:53;;;;;;;79.33;43.60;;;;;;;5.01;97.05;99300.81;5071119;28;20668;-80
2022/03/05 03:14:21;;;;;;;62.67;34.83;;;;;;;4.76;96.55;99261.59;5070789;28;20195;-81
2022/03/05 03:16:48;;;;;;;55.43;30.43;;;;;;;5.10;96.28;99298.97;5070755;28;20288;-80
2022/03/05 03:19:15;;;;;;;47.03;28.03;;;;;;;5.05;97.33;99302.47;5070550;28;20222;-81
2022/03/05 03:21:42;;;;;;;45.43;27.80;;;;;;;5.10;97.19;99308.41;5070734;28;20651;-81
2022/03/05 03:24:09;;;;;;;41.40;26.03;;;;;;;5.19;96.73;99312.66;5071192;28;20196;-81
2022/03/05 03:26:35;;;;;;;41.17;26.73;;;;;;;5.08;97.28;99316.16;5070906;28;20200;-79
2022/03/05 03:29:02;;;;;;;44.87;27.17;;;;;;;5.00;97.22;99304.25;5070443;28;20220;-80
2022/03/05 03:31:31;;;;;;;48.63;28.33;;;;;;;4.89;97.91;99298.34;5070550;28;20199;-80
2022/03/05 03:33:58;;;;;;;43.87;27.47;;;;;;;5.14;97.36;99322.97;5070421;28;20635;-80
2022/03/05 03:36:24;;;;;;;42.87;27.47;;;;;;;5.26;96.94;99327.13;5070583;28;20590;-80
2022/03/05 03:38:51;;;;;;;47.33;27.43;;;;;;;5.10;98.11;99329.00;5070760;28;20188;-80
2022/03/05 03:41:18;;;;;;;45.47;27.73;;;;;;;5.15;98.43;99329.81;5070266;28;20235;-81
2022/03/05 03:43:45;;;;;;;42.37;27.47;;;;;;;5.23;97.89;99329.72;5070372;28;20203;-80
2022/03/05 03:46:12;;;;;;;48.30;28.53;;;;;;;5.23;97.74;99328.00;5070411;28;20200;-81
2022/03/05 03:48:40;;;;;;;44.17;29.07;;;;;;;5.12;98.13;99319.56;5069961;28;20231;-77
2022/03/05 03:51:08;;;;;;;47.43;29.43;;;;;;;5.24;98.35;99332.28;5070446;28;20202;-77
2022/03/05 03:53:35;;;;;;;48.63;30.60;;;;;;;5.18;99.06;99334.09;5069951;28;20192;-77
2022/03/05 03:56:02;;;;;;;50.03;30.03;;;;;;;5.20;98.40;99330.59;5070236;28;20208;-77
2022/03/05 03:58:29;;;;;;;50.20;30.03;;;;;;;5.06;99.11;99307.63;5070034;28;20203;-78
2022/03/05 04:00:55;;;;;;;49.87;30.87;;;;;;;4.89;99.22;99283.78;5070051;28;20202;-77
2022/03/05 04:03:22;;;;;;;53.13;31.60;;;;;;;5.25;99.44;99334.00;5070378;28;20604;-77
2022/03/05 04:05:51;;;;;;;57.13;32.67;;;;;;;5.36;98.09;99337.31;5069990;28;20196;-77
2022/03/05 04:11:02;;;;;;;55.70;30.53;;;;;;;5.50;96.96;99344.91;5072414;28;20203;-77
2022/03/05 04:13:31;;;;;;;51.57;30.90;;;;;;;5.40;97.97;99349.28;5073347;28;20234;-76
2022/03/05 04:15:57;;;;;;;49.97;31.30;;;;;;;5.48;97.59;99346.63;5073412;28;20200;-77
2022/03/05 04:18:24;;;;;;;51.37;29.77;;;;;;;5.49;97.30;99348.34;5073630;28;20196;-78
2022/03/05 04:20:53;;;;;;;51.77;30.17;;;;;;;5.63;97.11;99350.75;5073775;28;20660;-77
2022/03/05 04:23:19;;;;;;;51.27;30.97;;;;;;;5.66;97.37;99351.56;5074159;28;20202;-77
2022/03/05 04:25:46;;;;;;;47.73;29.87;;;;;;;5.61;97.49;99350.78;5073180;28;20205;-79
2022/03/05 04:28:13;;;;;;;47.33;30.13;;;;;;;5.53;98.20;99344.84;5072682;28;20200;-80
2022/03/05 04:30:40;;;;;;;50.47;30.33;;;;;;;5.61;97.65;99358.50;5070028;28;20208;-80
2022/03/05 04:33:07;;;;;;;55.27;32.10;;;;;;;5.31;98.45;99333.06;5072754;28;20279;-79
2022/03/05 04:35:34;;;;;;;61.20;34.00;;;;;;;5.48;98.63;99349.19;5073232;28;20593;-79
2022/03/05 04:38:03;;;;;;;58.50;32.90;;;;;;;5.27;99.81;99358.00;5070015;28;20203;-80
2022/03/05 04:40:30;;;;;;;52.90;29.83;;;;;;;5.29;100.00;99355.41;5072314;28;20189;-80
2022/03/05 04:42:59;;;;;;;48.47;29.23;;;;;;;5.17;100.00;99351.25;5072393;28;20207;-80
2022/03/05 04:45:26;;;;;;;46.70;28.03;;;;;;;4.87;100.00;99321.50;5072299;28;20199;-79
2022/03/05 04:47:54;;;;;;;40.00;25.43;;;;;;;5.07;100.00;99347.91;5072005;28;20206;-78
2022/03/05 04:50:21;;;;;;;45.03;26.33;;;;;;;4.95;100.00;99350.59;5072800;28;20602;-79
2022/03/05 04:52:48;;;;;;;41.67;26.10;;;;;;;4.84;100.00;99354.97;5072748;28;20652;-79
2022/03/05 04:55:16;;;;;;;38.17;24.67;;;;;;;4.72;100.00;99358.50;5072995;28;20291;-77
2022/03/05 04:57:43;;;;;;;39.57;25.33;;;;;;;4.70;100.00;99355.09;5072609;28;20192;-78
2022/03/05 05:00:11;;;;;;;43.70;26.00;;;;;;;4.57;100.00;99311.47;5072868;28;20680;-79
2022/03/05 05:02:39;;;;;;;42.33;25.93;;;;;;;4.18;100.00;99256.09;5072836;28;20588;-80
2022/03/05 05:05:06;;;;;;;43.90;27.40;;;;;;;4.73;100.00;99354.22;5072841;28;20200;-81
2022/03/05 05:07:33;;;;;;;43.90;27.90;;;;;;;4.16;100.00;99263.84;5072524;28;20206;-81
2022/03/05 05:10:00;;;;;;;44.37;28.93;;;;;;;4.74;100.00;99358.47;5072268;28;20220;-80
2022/03/05 05:12:29;;;;;;;42.83;27.50;;;;;;;4.21;100.00;99263.78;5072740;28;20552;-81
2022/03/05 05:14:56;;;;;;;44.80;28.73;;;;;;;4.91;100.00;99376.34;5072430;28;20283;-82
2022/03/05 05:17:22;;;;;;;46.00;27.43;;;;;;;4.91;100.00;99378.91;5072406;28;20200;-81
2022/03/05 05:19:49;;;;;;;43.13;26.40;;;;;;;5.01;100.00;99380.53;5072517;28;20584;-82
2022/03/05 05:22:16;;;;;;;44.13;27.60;;;;;;;4.75;100.00;99384.16;5071034;28;20207;-82
2022/03/05 05:24:43;;;;;;;50.93;28.77;;;;;;;4.67;100.00;99388.50;5070370;28;20196;-82
2022/03/05 05:27:10;;;;;;;47.53;29.73;;;;;;;4.85;100.00;99390.13;5071037;28;20196;-80
2022/03/05 05:29:38;;;;;;;41.10;26.50;;;;;;;4.81;100.00;99372.13;5066086;28;20212;-80
2022/03/05 05:32:07;;;;;;;41.23;26.87;;;;;;;4.92;100.00;99389.19;5071810;28;21310;-81
2022/03/05 05:34:34;;;;;;;46.47;27.63;;;;;;;5.04;100.00;99390.81;5070253;28;20574;-81
2022/03/05 05:37:01;;;;;;;65.50;32.83;;;;;;;5.02;100.00;99393.38;5070931;28;20591;-80
2022/03/05 05:39:27;;;;;;;99.07;40.43;;;;;;;4.56;100.00;99331.19;5070865;28;20192;-80
2022/03/05 05:41:55;;;;;;;63.93;32.53;;;;;;;4.99;100.00;99403.69;5070590;28;20231;-79
2022/03/05 05:44:22;;;;;;;51.07;29.80;;;;;;;5.03;100.00;99410.53;5070913;28;20699;-79
2022/03/05 05:46:50;;;;;;;37.00;23.87;;;;;;;5.03;100.00;99410.53;5069331;28;20207;-79
2022/03/05 05:49:18;;;;;;;37.47;24.03;;;;;;;4.84;100.00;99372.97;5069267;28;20228;-77
2022/03/05 05:51:45;;;;;;;38.43;23.83;;;;;;;5.18;100.00;99413.84;5069858;28;20721;-79
2022/03/05 05:54:12;;;;;;;38.23;24.57;;;;;;;5.11;100.00;99424.16;5069647;28;20682;-80
2022/03/05 05:56:39;;;;;;;34.43;23.90;;;;;;;5.09;100.00;99399.31;5069367;28;20207;-80
2022/03/05 05:59:06;;;;;;;35.50;24.07;;;;;;;5.24;100.00;99424.94;5069968;28;20578;-75
2022/03/05 06:01:33;;;;;;;39.17;25.57;;;;;;;5.25;100.00;99425.78;5069400;28;20196;-76
2022/03/05 06:04:01;;;;;;;36.83;26.00;;;;;;;5.23;100.00;99430.06;5066897;28;20202;-74
2022/03/05 06:06:28;;;;;;;38.50;26.40;;;;;;;5.31;100.00;99429.13;5069819;28;20244;-76
2022/03/05 06:08:55;;;;;;;38.93;26.20;;;;;;;5.09;100.00;99410.47;5068548;28;20202;-76
2022/03/05 06:11:22;;;;;;;40.43;25.00;;;;;;;5.21;100.00;99435.22;5068702;28;20215;-75
2022/03/05 06:13:49;;;;;;;36.80;25.10;;;;;;;5.27;100.00;99444.63;5068888;28;20581;-75
2022/03/05 06:16:16;;;;;;;39.67;25.40;;;;;;;5.03;100.00;99389.94;5068686;28;20292;-77
2022/03/05 06:18:43;;;;;;;39.73;24.80;;;;;;;5.16;100.00;99419.00;5068251;28;20221;-77
2022/03/05 06:21:11;;;;;;;39.63;25.23;;;;;;;5.44;100.00;99437.59;5069980;28;20238;-77
2022/03/05 06:23:38;;;;;;;36.63;24.07;;;;;;;5.27;100.00;99445.50;5064843;28;20220;-76
2022/03/05 06:26:05;;;;;;;39.03;26.50;;;;;;;5.44;100.00;99442.75;5069517;28;20230;-75
2022/03/05 06:28:32;;;;;;;34.17;26.00;;;;;;;5.43;100.00;99441.03;5069494;28;20791;-74
2022/03/05 06:31:00;;;;;;;39.70;26.17;;;;;;;5.40;100.00;99415.34;5068355;28;20227;-76
2022/03/05 06:33:27;;;;;;;34.80;23.63;;;;;;;5.61;100.00;99445.19;5069723;28;20290;-75
2022/03/05 06:35:54;;;;;;;36.90;23.90;;;;;;;5.18;100.00;99372.69;5069603;28;20223;-74
2022/03/05 06:38:23;;;;;;;35.10;24.33;;;;;;;5.59;100.00;99445.19;5069858;28;20223;-77
2022/03/05 06:40:49;;;;;;;37.10;23.93;;;;;;;5.22;100.00;99394.91;5069678;28;20226;-77
2022/03/05 06:43:16;;;;;;;37.27;25.17;;;;;;;5.22;100.00;99418.06;5069512;28;20192;-77
2022/03/05 06:45:44;;;;;;;36.03;24.40;;;;;;;5.45;100.00;99449.59;5069330;28;20220;-77
2022/03/05 06:48:11;;;;;;;36.40;24.43;;;;;;;5.47;100.00;99465.91;5069987;28;20631;-73
2022/03/05 06:50:38;;;;;;;34.77;23.60;;;;;;;5.14;100.00;99418.16;5070175;28;20223;-76
2022/03/05 06:53:06;;;;;;;39.60;24.47;;;;;;;5.05;100.00;99375.38;5069507;28;20191;-77
2022/03/05 06:55:34;;;;;;;42.70;26.20;;;;;;;5.69;100.00;99464.81;5067725;28;20208;-75
2022/03/05 06:58:01;;;;;;;38.93;25.07;;;;;;;5.74;100.00;99468.22;5069165;28;20222;-76
2022/03/05 07:00:28;;;;;;;35.50;24.20;;;;;;;5.90;100.00;99478.38;5065844;28;20219;-75
2022/03/05 07:02:55;;;;;;;35.37;24.60;;;;;;;6.02;100.00;99479.09;5070303;28;20200;-75
2022/03/05 07:05:22;;;;;;;37.97;25.37;;;;;;;6.02;100.00;99467.94;5070256;28;20198;-75
2022/03/05 07:07:48;;;;;;;37.83;24.60;;;;;;;6.05;100.00;99488.53;5069800;28;20196;-76
2022/03/05 07:10:15;;;;;;;36.40;23.83;;;;;;;6.04;100.00;99484.25;5070265;28;20638;-75
2022/03/05 07:12:44;;;;;;;34.50;24.33;;;;;;;6.04;100.00;99494.53;5070246;28;20195;-74
2022/03/05 07:15:11;;;;;;;36.20;24.30;;;;;;;5.81;100.00;99469.84;5069240;28;20211;-75
2022/03/05 07:17:38;;;;;;;37.07;25.03;;;;;;;5.91;100.00;99485.25;5068404;28;20191;-75
2022/03/05 07:20:06;;;;;;;36.43;24.50;;;;;;;5.69;100.00;99441.66;5069032;28;20192;-75
2022/03/05 07:22:33;;;;;;;37.63;25.93;;;;;;;5.99;100.00;99486.00;5069282;28;20202;-74
2022/03/05 07:25:02;;;;;;;40.77;26.47;;;;;;;5.98;100.00;99480.00;5069288;28;20196;-75
2022/03/05 07:27:29;;;;;;;42.77;28.93;;;;;;;5.79;100.00;99448.41;5069216;28;20192;-76
2022/03/05 07:29:57;;;;;;;45.67;29.80;;;;;;;5.93;100.00;99476.63;5069332;28;20227;-76
2022/03/05 07:32:24;;;;;;;54.20;32.57;;;;;;;6.02;100.00;99488.56;5069609;28;20238;-78
2022/03/05 07:34:51;;;;;;;46.93;30.77;;;;;;;6.09;100.00;99485.06;5069965;28;20192;-79
2022/03/05 07:37:18;;;;;;;42.70;28.73;;;;;;;6.17;100.00;99485.81;5070086;28;20207;-79
2022/03/05 07:39:45;;;;;;;43.87;28.27;;;;;;;6.20;100.00;99490.94;5069827;28;20199;-79
2022/03/05 07:42:12;;;;;;;46.23;30.20;;;;;;;6.19;100.00;99492.66;5070439;28;20239;-79
2022/03/05 07:44:39;;;;;;;44.57;29.07;;;;;;;6.18;100.00;99490.97;5071637;28;20200;-79
2022/03/05 07:47:07;;;;;;;45.03;29.13;;;;;;;6.19;100.00;99495.25;5074059;28;20198;-80
2022/03/05 07:49:34;;;;;;;45.47;30.87;;;;;;;6.24;100.00;99489.16;5074021;28;20196;-79
2022/03/05 07:52:01;;;;;;;47.63;30.13;;;;;;;6.04;100.00;99482.53;5073047;28;20210;-78
2022/03/05 07:54:28;;;;;;;51.40;31.40;;;;;;;6.18;100.00;99495.25;5074032;28;20202;-78
2022/03/05 07:56:56;;;;;;;45.43;30.50;;;;;;;6.01;100.00;99474.81;5069918;28;20242;-79
2022/03/05 07:59:23;;;;;;;40.13;29.00;;;;;;;6.03;100.00;99498.84;5069278;28;20216;-78
2022/03/05 08:01:49;;;;;;;44.97;28.27;;;;;;;5.97;100.00;99492.91;5072125;28;20590;-77
2022/03/05 08:04:18;;;;;;;41.73;29.87;;;;;;;5.92;100.00;99502.41;5072268;28;20208;-77
2022/03/05 08:06:45;;;;;;;49.97;31.87;;;;;;;5.56;100.00;99458.09;5072719;28;20191;-77
2022/03/05 08:09:11;;;;;;;53.73;32.83;;;;;;;5.55;100.00;99487.25;5072726;28;20195;-77
2022/03/05 08:11:38;;;;;;;109.27;57.20;;;;;;;5.40;100.00;99498.56;5072547;28;20216;-78
2022/03/05 08:14:05;;;;;;;54.23;31.40;;;;;;;5.53;100.00;99499.28;5072728;28;20192;-77
2022/03/05 08:16:33;;;;;;;44.37;29.30;;;;;;;5.48;100.00;99501.94;5072196;28;20198;-77
2022/03/05 08:19:00;;;;;;;51.30;34.00;;;;;;;5.41;100.00;99481.41;5072407;28;20254;-77
2022/03/05 08:21:28;;;;;;;51.67;31.50;;;;;;;5.34;100.00;99483.16;5072030;28;20190;-76
2022/03/05 08:23:56;;;;;;;46.00;30.53;;;;;;;5.28;100.00;99474.66;5072426;28;20192;-78
2022/03/05 08:26:23;;;;;;;47.13;30.90;;;;;;;5.38;100.00;99489.16;5073553;28;20578;-82
2022/03/05 08:28:50;;;;;;;48.37;32.10;;;;;;;4.98;100.00;99422.56;5073218;28;20283;-79
2022/03/05 08:31:17;;;;;;;51.40;32.13;;;;;;;5.37;100.00;99503.72;5073391;28;20723;-79
2022/03/05 08:33:44;;;;;;;50.77;34.03;;;;;;;5.32;100.00;99504.63;5073013;28;20217;-78
2022/03/05 08:36:11;;;;;;;52.70;33.87;;;;;;;5.33;100.00;99511.47;5073141;28;20206;-76
2022/03/05 08:38:40;;;;;;;57.37;35.37;;;;;;;5.28;100.00;99497.81;5073323;28;20188;-79
2022/03/05 08:41:07;;;;;;;60.97;37.80;;;;;;;5.28;100.00;99478.09;5073104;28;20216;-79
2022/03/05 08:43:34;;;;;;;57.63;36.47;;;;;;;5.49;100.00;99515.66;5073401;28;20196;-81
2022/03/05 08:46:02;;;;;;;56.90;36.23;;;;;;;5.50;100.00;99513.94;5072600;28;20227;-81
2022/03/05 08:48:29;;;;;;;57.63;36.43;;;;;;;5.68;100.00;99514.63;5073270;28;20195;-80
2022/03/05 08:50:56;;;;;;;89.30;47.87;;;;;;;5.77;100.00;99519.66;5072629;28;20689;-81
2022/03/05 08:53:23;;;;;;;85.77;48.67;;;;;;;5.90;100.00;99514.44;5073124;28;20194;-86
2022/03/05 08:55:52;;;;;;;81.20;47.83;;;;;;;5.99;100.00;99519.50;5072298;28;20687;-88
2022/03/05 08:58:20;;;;;;;78.10;47.40;;;;;;;6.18;100.00;99526.19;5073321;28;20279;-82
2022/03/05 09:00:47;;;;;;;72.13;43.60;;;;;;;6.23;100.00;99521.81;5072643;28;20188;-82
2022/03/05 09:03:14;;;;;;;55.80;33.57;;;;;;;6.35;100.00;99524.25;5072877;28;20196;-86
2022/03/05 09:05:41;;;;;;;57.37;34.47;;;;;;;6.42;100.00;99528.47;5073116;28;20196;-85
2022/03/05 09:08:09;;;;;;;78.03;40.70;;;;;;;6.34;100.00;99506.22;5073554;28;20283;-80
2022/03/05 09:10:36;;;;;;;83.13;44.97;;;;;;;6.56;100.00;99517.97;5073199;28;20227;-81
2022/03/05 09:13:05;;;;;;;65.70;40.10;;;;;;;6.68;100.00;99529.84;5072957;28;20203;-83
2022/03/05 09:15:32;;;;;;;64.37;40.07;;;;;;;6.69;100.00;99524.69;5073076;28;20222;-82
2022/03/05 09:17:59;;;;;;;67.43;40.73;;;;;;;6.19;100.00;99460.88;5072591;28;20576;-79
2022/03/05 09:20:26;;;;;;;64.47;41.00;;;;;;;6.51;100.00;99515.47;5072373;28;20228;-80
2022/03/05 09:22:53;;;;;;;67.33;41.80;;;;;;;6.53;100.00;99536.94;5072766;28;20199;-84
2022/03/05 09:25:20;;;;;;;60.73;39.37;;;;;;;6.32;100.00;99483.03;5073119;28;20639;-83
2022/03/05 09:27:47;;;;;;;73.67;42.90;;;;;;;6.64;100.00;99530.78;5072988;28;20351;-82
2022/03/05 09:30:16;;;;;;;72.60;45.10;;;;;;;6.68;100.00;99527.28;5073275;28;20660;-83
2022/03/05 09:32:43;;;;;;;70.83;43.60;;;;;;;6.50;100.00;99533.53;5073268;28;20277;-83
2022/03/05 09:35:10;;;;;;;59.67;37.67;;;;;;;6.39;100.00;99532.81;5073631;28;20199;-81
2022/03/05 09:37:37;;;;;;;55.13;38.03;;;;;;;6.23;100.00;99508.94;5072655;28;20206;-77
2022/03/05 09:40:07;;;;;;;59.57;37.60;;;;;;;6.24;100.00;99494.31;5072930;28;20219;-84
2022/03/05 09:42:34;;;;;;;63.97;41.53;;;;;;;6.60;100.00;99542.88;5072571;28;20607;-83
2022/03/05 09:45:03;;;;;;;64.17;39.13;;;;;;;6.46;100.00;99537.88;5072243;28;20195;-83
2022/03/05 09:47:32;;;;;;;61.40;38.53;;;;;;;6.19;100.00;99526.16;5072006;28;20279;-79
2022/03/05 09:49:59;;;;;;;58.67;36.90;;;;;;;5.92;100.00;99472.34;5071667;28;20196;-80
2022/03/05 09:52:26;;;;;;;51.07;34.73;;;;;;;6.29;100.00;99538.94;5071932;28;20302;-81
2022/03/05 09:54:52;;;;;;;54.90;36.33;;;;;;;6.39;100.00;99540.53;5072101;28;20291;-78
2022/03/05 09:57:19;;;;;;;54.60;36.70;;;;;;;6.17;100.00;99533.06;5071618;28;20199;-77
2022/03/05 09:59:46;;;;;;;58.47;37.70;;;;;;;6.14;100.00;99534.81;5071568;28;20200;-76
2022/03/05 10:02:13;;;;;;;56.43;37.70;;;;;;;6.20;100.00;99532.19;5071531;28;20187;-78
2022/03/05 10:04:42;;;;;;;58.23;36.83;;;;;;;6.14;100.00;99534.81;5071973;28;20610;-81
2022/03/05 10:07:12;;;;;;;56.83;37.97;;;;;;;6.33;100.00;99532.88;5071602;28;20199;-79
2022/03/05 10:09:41;;;;;;;63.57;40.37;;;;;;;6.37;100.00;99486.41;5071240;28;20195;-82
2022/03/05 10:12:31;;;;;;;52.40;34.67;;;;;;;6.70;100.00;99515.22;5071239;28;20311;-80
2022/03/05 10:15:09;;;;;;;59.83;37.50;;;;;;;6.31;100.00;99454.72;5071197;28;20192;-82
2022/03/05 10:17:50;;;;;;;59.73;35.87;;;;;;;6.96;100.00;99515.72;5071366;28;20196;-78
2022/03/05 10:20:19;;;;;;;54.00;33.57;;;;;;;7.09;100.00;99524.16;5071248;28;20278;-78
2022/03/05 10:23:01;;;;;;;55.23;36.07;;;;;;;7.00;100.00;99477.84;5071196;28;20275;-76
2022/03/05 10:25:30;;;;;;;48.90;32.47;;;;;;;7.32;100.00;99510.91;5071076;28;20218;-77
2022/03/05 10:28:02;;;;;;;44.87;30.50;;;;;;;7.30;100.00;99485.09;5070840;28;20202;-77
2022/03/05 10:30:30;;;;;;;42.23;29.83;;;;;;;7.54;100.00;99522.59;5070822;28;20200;-75
2022/03/05 10:32:57;;;;;;;43.57;29.17;;;;;;;7.58;100.00;99514.75;5070652;28;20261;-74
2022/03/05 10:35:26;;;;;;;61.47;31.50;;;;;;;7.72;100.00;99491.25;5070825;28;20317;-76
2022/03/05 10:37:53;;;;;;;42.47;30.47;;;;;;;7.97;100.00;99510.63;5069386;28;20207;-75
2022/03/05 10:40:32;;;;;;;42.93;30.03;;;;;;;8.11;100.00;99510.38;5069473;28;20196;-78
2022/03/05 10:43:01;;;;;;;40.20;29.93;;;;;;;8.28;100.00;99504.88;5070039;28;20672;-76
2022/03/05 10:45:30;;;;;;;41.17;29.30;;;;;;;8.23;100.00;99475.69;5068949;28;20195;-74
2022/03/05 10:47:59;;;;;;;37.73;27.90;;;;;;;8.30;100.00;99459.16;5070171;28;20192;-76
2022/03/05 10:50:30;;;;;;;40.37;28.83;;;;;;;8.44;100.00;99487.34;5070741;28;20571;-76
2022/03/05 10:53:00;;;;;;;41.83;30.27;;;;;;;8.78;100.00;99508.19;5069497;28;20200;-74
2022/03/05 10:55:29;;;;;;;40.97;30.10;;;;;;;8.66;100.00;99506.72;5070342;28;20245;-75
2022/03/05 10:57:58;;;;;;;42.00;29.67;;;;;;;8.54;100.00;99499.22;5067870;28;20203;-75
2022/03/05 11:00:28;;;;;;;42.80;29.23;;;;;;;8.36;100.00;99461.63;5070400;28;20192;-74
2022/03/05 11:02:57;;;;;;;40.93;29.47;;;;;;;8.34;100.00;99497.88;5069773;28;20573;-74
2022/03/05 11:05:28;;;;;;;42.90;29.73;;;;;;;8.29;100.00;99502.25;5069977;28;20621;-75
2022/03/05 11:07:56;;;;;;;42.63;29.17;;;;;;;8.31;100.00;99487.59;5067411;28;20688;-75
2022/03/05 11:10:29;;;;;;;40.43;30.37;;;;;;;8.37;100.00;99486.59;5069876;28;20831;-75
2022/03/05 11:12:59;;;;;;;40.33;29.23;;;;;;;8.45;100.00;99478.72;5069774;28;20219;-75
2022/03/05 11:15:27;;;;;;;41.87;28.30;;;;;;;8.38;100.00;99489.16;5069773;28;20192;-76
2022/03/05 11:17:54;;;;;;;38.10;28.10;;;;;;;8.28;100.00;99458.31;5067283;28;20349;-75
2022/03/05 11:20:21;;;;;;;37.80;26.07;;;;;;;7.95;100.00;99483.09;5062015;28;20286;-76
2022/03/05 11:22:50;;;;;;;37.17;27.63;;;;;;;7.84;100.00;99472.97;5065283;28;20195;-75